Time;durP1;ratioP1;P1;durP2;ratioP2;P2;SDS_P1;SDS_P2;PMS_P1;PMS_P2;Temp;Humidity;BMP_temperature;BMP_pressure;BME280_temperature;BME280_humidity;BME280_pressure;Samples;Min_cycle;Max_cycle;Signal;HPM_P1;HPM_P2
2024/04/03 00:00:02;;;;;;;7.68;2.47;;;12.70;99.90;;;;;;6308467;22;20425;-69
2024/04/03 00:02:28;;;;;;;8.73;2.80;;;12.60;99.90;;;;;;6308464;22;19995;-69
2024/04/03 00:04:54;;;;;;;6.57;2.92;;;12.60;99.90;;;;;;6308375;22;20084;-69
2024/04/03 00:07:20;;;;;;;6.30;2.63;;;12.50;99.90;;;;;;6309050;22;20000;-70
2024/04/03 00:09:46;;;;;;;7.15;2.28;;;12.50;99.90;;;;;;6307953;22;20082;-69
2024/04/03 00:12:12;;;;;;;6.80;2.78;;;12.50;99.90;;;;;;6308048;22;20045;-69
2024/04/03 00:14:37;;;;;;;6.30;2.63;;;12.50;99.90;;;;;;6308145;22;19999;-69
2024/04/03 00:17:04;;;;;;;6.50;2.60;;;12.40;99.90;;;;;;6308318;22;20007;-69
2024/04/03 00:19:29;;;;;;;9.82;2.58;;;12.40;99.90;;;;;;6281114;22;20004;-70
2024/04/03 00:21:55;;;;;;;10.00;2.97;;;12.30;99.90;;;;;;6307657;22;20006;-69
2024/04/03 00:24:21;;;;;;;7.68;2.58;;;12.30;99.90;;;;;;6308176;22;20339;-69
2024/04/03 00:26:46;;;;;;;5.85;2.30;;;12.30;99.90;;;;;;6308197;22;20003;-70
2024/04/03 00:29:12;;;;;;;9.70;3.00;;;12.30;99.90;;;;;;6308023;22;19999;-70
2024/04/03 00:31:38;;;;;;;13.07;3.55;;;12.30;99.90;;;;;;6307692;22;20003;-69
2024/04/03 00:34:04;;;;;;;11.43;3.60;;;12.30;99.90;;;;;;6307732;22;20443;-70
2024/04/03 00:36:30;;;;;;;8.75;3.22;;;12.20;99.90;;;;;;6308027;22;20014;-69
2024/04/03 00:38:56;;;;;;;9.95;3.35;;;12.20;99.90;;;;;;6307967;22;20007;-69
2024/04/03 00:41:22;;;;;;;10.30;2.78;;;12.20;99.90;;;;;;6307633;22;20003;-69
2024/04/03 00:43:50;;;;;;;6.43;2.97;;;12.10;99.90;;;;;;6307912;22;20026;-69
2024/04/03 00:46:16;;;;;;;7.68;3.40;;;12.10;99.90;;;;;;6307899;22;20082;-69
2024/04/03 00:48:43;;;;;;;6.70;3.00;;;12.10;99.90;;;;;;6307792;22;20084;-69
2024/04/03 00:51:10;;;;;;;7.72;3.00;;;12.10;99.90;;;;;;6307129;22;20015;-70
2024/04/03 00:53:38;;;;;;;10.65;3.90;;;12.10;99.90;;;;;;6307895;22;20023;-69
2024/04/03 00:56:08;;;;;;;5.95;2.63;;;12.00;99.90;;;;;;6307501;22;20098;-69
2024/04/03 00:58:35;;;;;;;10.73;3.60;;;12.00;99.90;;;;;;6305315;22;20048;-70
2024/04/03 01:01:01;;;;;;;10.90;3.47;;;12.00;99.90;;;;;;6276925;22;20608;-69
2024/04/03 01:03:27;;;;;;;7.35;3.08;;;12.00;99.90;;;;;;6276561;22;20808;-69
2024/04/03 01:06:02;;;;;;;7.00;3.67;;;11.90;99.90;;;;;;6307463;22;20010;-69
2024/04/03 01:08:29;;;;;;;9.63;3.33;;;11.90;99.90;;;;;;6280395;22;20456;-70
2024/04/03 01:10:57;;;;;;;7.75;3.00;;;11.90;99.90;;;;;;6307218;22;20006;-69
2024/04/03 01:13:24;;;;;;;8.93;3.25;;;11.80;99.90;;;;;;6307414;22;20003;-69
2024/04/03 01:16:08;;;;;;;12.43;3.30;;;11.90;99.90;;;;;;6307404;22;20026;-70
2024/04/03 01:18:34;;;;;;;10.07;3.60;;;11.80;99.90;;;;;;6307581;22;19996;-70
2024/04/03 01:21:00;;;;;;;8.63;2.78;;;11.80;99.90;;;;;;6307340;22;20027;-69
2024/04/03 01:23:26;;;;;;;5.55;2.60;;;11.80;99.90;;;;;;6307392;22;20002;-69
2024/04/03 01:25:52;;;;;;;8.15;2.83;;;11.70;99.90;;;;;;6307086;22;20002;-69
2024/04/03 01:28:20;;;;;;;7.57;2.83;;;11.70;99.90;;;;;;6306722;22;20035;-69
2024/04/03 01:30:46;;;;;;;5.45;2.30;;;11.70;99.90;;;;;;6307271;22;20003;-69
2024/04/03 01:33:12;;;;;;;7.68;2.45;;;11.70;99.90;;;;;;6307429;22;20030;-70
2024/04/03 01:35:37;;;;;;;8.10;2.33;;;11.70;99.90;;;;;;6306656;22;20015;-70
2024/04/03 01:38:04;;;;;;;8.32;2.63;;;11.70;99.90;;;;;;6307042;22;19996;-70
2024/04/03 01:40:29;;;;;;;9.43;2.67;;;11.60;99.90;;;;;;6307004;22;20390;-69
2024/04/03 01:42:55;;;;;;;6.72;2.72;;;11.60;99.90;;;;;;6307130;22;20023;-69
2024/04/03 01:45:21;;;;;;;7.03;2.22;;;11.60;99.90;;;;;;6306852;22;20464;-69
2024/04/03 01:47:47;;;;;;;9.38;3.10;;;11.60;99.90;;;;;;6307257;22;19999;-70
2024/04/03 01:50:20;;;;;;;11.32;2.13;;;11.60;99.90;;;;;;6306799;22;20030;-69
2024/04/03 01:52:46;;;;;;;8.68;2.40;;;11.60;99.90;;;;;;6307562;22;20014;-69
2024/04/03 01:55:12;;;;;;;9.13;2.70;;;11.60;99.90;;;;;;6306629;22;20016;-69
2024/04/03 01:57:38;;;;;;;8.38;2.20;;;11.60;99.90;;;;;;6307181;22;19999;-70
2024/04/03 02:00:05;;;;;;;7.03;2.17;;;11.60;99.90;;;;;;6307399;22;20060;-69
2024/04/03 02:02:31;;;;;;;7.45;2.08;;;11.60;99.90;;;;;;6307324;22;20003;-69
2024/04/03 02:04:57;;;;;;;5.95;1.85;;;11.60;99.90;;;;;;6307386;22;20425;-69
2024/04/03 02:07:22;;;;;;;7.50;2.05;;;11.60;99.90;;;;;;6307117;22;20382;-70
2024/04/03 02:09:48;;;;;;;8.18;2.20;;;11.60;99.90;;;;;;6306768;22;20009;-70
2024/04/03 02:12:14;;;;;;;6.30;2.30;;;11.60;99.90;;;;;;6307005;22;19999;-69
2024/04/03 02:14:40;;;;;;;6.43;1.80;;;11.60;99.90;;;;;;6306699;22;20053;-69
2024/04/03 02:17:06;;;;;;;8.10;2.40;;;11.50;99.90;;;;;;6307239;22;20000;-69
2024/04/03 02:19:32;;;;;;;4.88;2.53;;;11.60;99.90;;;;;;6306944;22;19999;-69
2024/04/03 02:21:57;;;;;;;4.97;2.03;;;11.60;99.90;;;;;;6306661;22;19995;-70
2024/04/03 02:24:23;;;;;;;4.13;2.03;;;11.50;99.90;;;;;;6306665;22;20070;-70
2024/04/03 02:26:49;;;;;;;14.02;3.33;;;11.50;99.90;;;;;;6306695;22;20030;-69
2024/04/03 02:29:15;;;;;;;13.40;2.50;;;11.50;99.90;;;;;;6306979;22;20003;-69
2024/04/03 02:31:40;;;;;;;10.73;2.60;;;11.40;99.90;;;;;;6307178;22;19999;-69
2024/04/03 02:34:08;;;;;;;6.57;2.85;;;11.40;99.90;;;;;;6306680;22;20008;-70
2024/04/03 02:36:33;;;;;;;14.05;3.47;;;11.40;99.90;;;;;;6305190;22;20326;-70
2024/04/03 02:38:59;;;;;;;7.30;2.92;;;11.30;99.90;;;;;;6279151;22;20003;-69
2024/04/03 02:41:25;;;;;;;7.65;2.88;;;11.30;99.90;;;;;;6307496;22;20003;-69
2024/04/03 02:43:51;;;;;;;5.22;2.67;;;11.30;99.90;;;;;;6306791;22;20015;-69
2024/04/03 02:46:17;;;;;;;7.18;2.83;;;11.20;99.90;;;;;;6306739;22;20011;-69
2024/04/03 02:48:43;;;;;;;7.40;2.67;;;11.20;99.90;;;;;;6306697;22;20004;-69
2024/04/03 02:51:12;;;;;;;7.65;3.10;;;11.10;99.90;;;;;;6307020;22;20056;-69
2024/04/03 02:53:38;;;;;;;6.35;2.28;;;11.10;99.90;;;;;;6307114;22;20053;-69
2024/04/03 02:56:08;;;;;;;16.17;2.75;;;11.10;99.90;;;;;;6306654;22;20418;-69
2024/04/03 02:58:34;;;;;;;9.43;2.83;;;11.10;99.90;;;;;;6279509;22;20035;-69
2024/04/03 03:01:07;;;;;;;13.20;2.63;;;11.10;99.90;;;;;;6306803;22;20406;-69
2024/04/03 03:03:33;;;;;;;10.02;2.78;;;11.10;99.90;;;;;;6308387;22;20035;-68
2024/04/03 03:06:00;;;;;;;7.82;2.65;;;11.10;99.90;;;;;;6308611;22;20057;-70
2024/04/03 03:08:30;;;;;;;12.15;2.53;;;11.00;99.90;;;;;;6309076;22;20003;-69
2024/04/03 03:10:57;;;;;;;79.15;49.85;;;11.10;99.90;;;;;;6308925;22;20045;-69
2024/04/03 03:13:26;;;;;;;11.05;5.85;;;11.10;99.90;;;;;;6309055;22;19996;-69
2024/04/03 03:15:56;;;;;;;15.20;3.05;;;11.10;99.90;;;;;;6308963;22;20103;-69
2024/04/03 03:18:24;;;;;;;9.00;2.50;;;11.10;99.90;;;;;;6308971;22;20057;-69
2024/04/03 03:20:50;;;;;;;8.70;2.70;;;11.10;99.90;;;;;;6308647;22;20366;-69
2024/04/03 03:23:17;;;;;;;9.25;2.35;;;11.00;99.90;;;;;;6308555;22;20074;-69
2024/04/03 03:25:44;;;;;;;6.57;2.35;;;11.10;99.90;;;;;;6308690;22;20389;-70
2024/04/03 03:28:11;;;;;;;15.98;2.65;;;11.00;99.90;;;;;;6308443;22;19999;-69
2024/04/03 03:30:37;;;;;;;7.95;2.00;;;11.10;99.90;;;;;;6308622;22;20004;-69
2024/04/03 03:33:03;;;;;;;10.43;2.45;;;11.00;99.90;;;;;;6308477;22;20000;-69
2024/04/03 03:35:30;;;;;;;7.18;2.15;;;11.00;99.90;;;;;;6308423;22;20042;-69
2024/04/03 03:37:55;;;;;;;9.10;2.00;;;11.00;99.90;;;;;;6308433;22;20315;-69
2024/04/03 03:40:21;;;;;;;10.73;2.47;;;11.00;99.90;;;;;;6308530;22;20079;-69
2024/04/03 03:42:47;;;;;;;5.78;2.10;;;11.00;99.90;;;;;;6308468;22;20006;-70
2024/04/03 03:45:18;;;;;;;9.65;2.35;;;11.00;99.90;;;;;;6308464;22;19995;-69
2024/04/03 03:47:44;;;;;;;6.22;2.33;;;11.00;99.90;;;;;;6308323;22;20478;-69
2024/04/03 03:52:54;;;;;;;6.97;2.10;;;11.00;99.90;;;;;;6308234;22;20022;-69
2024/04/03 03:55:20;;;;;;;12.43;2.88;;;11.00;99.90;;;;;;6307986;22;20023;-69
2024/04/03 03:57:45;;;;;;;7.22;2.15;;;11.00;99.90;;;;;;6308814;22;20007;-69
2024/04/03 04:00:12;;;;;;;5.80;2.10;;;11.00;99.90;;;;;;6307735;22;20045;-69
2024/04/03 04:02:38;;;;;;;7.55;2.80;;;11.00;99.90;;;;;;6307158;22;20007;-69
2024/04/03 04:05:03;;;;;;;11.60;1.90;;;11.00;99.90;;;;;;6308050;22;19995;-69
2024/04/03 04:07:29;;;;;;;9.73;2.88;;;11.00;99.90;;;;;;6308171;22;20004;-69
2024/04/03 04:09:55;;;;;;;9.50;2.00;;;10.90;99.90;;;;;;6306190;22;20039;-69
2024/04/03 04:12:21;;;;;;;13.30;2.75;;;10.90;99.90;;;;;;6308192;22;20006;-68
2024/04/03 04:14:53;;;;;;;11.27;3.08;;;10.90;99.90;;;;;;6307841;22;20014;-69
2024/04/03 04:17:22;;;;;;;7.43;2.05;;;10.90;99.90;;;;;;6307839;22;20034;-69
2024/04/03 04:19:49;;;;;;;12.32;2.03;;;10.80;99.90;;;;;;6308152;22;20049;-69
2024/04/03 04:22:15;;;;;;;8.23;2.53;;;10.80;99.90;;;;;;6307890;22;20472;-69
2024/04/03 04:24:43;;;;;;;11.98;2.20;;;10.80;99.90;;;;;;6308352;22;19995;-69
2024/04/03 04:27:09;;;;;;;9.23;2.40;;;10.80;99.90;;;;;;6308208;22;20006;-69
2024/04/03 04:29:40;;;;;;;6.68;2.42;;;10.80;99.90;;;;;;6308057;22;20004;-69
2024/04/03 04:32:07;;;;;;;9.32;2.67;;;10.80;99.90;;;;;;6308430;22;20003;-69
2024/04/03 04:34:33;;;;;;;14.48;2.45;;;10.70;99.90;;;;;;6307335;22;20007;-69
2024/04/03 04:36:59;;;;;;;10.57;2.03;;;10.70;99.90;;;;;;6306972;22;20010;-68
2024/04/03 04:39:24;;;;;;;10.20;2.63;;;10.70;99.90;;;;;;6307743;22;20023;-69
2024/04/03 04:41:51;;;;;;;9.80;1.98;;;10.70;99.90;;;;;;6307693;22;20014;-69
2024/04/03 04:44:21;;;;;;;11.07;2.25;;;10.60;99.90;;;;;;6307613;22;20007;-69
2024/04/03 04:46:51;;;;;;;9.35;2.10;;;10.60;99.90;;;;;;6308023;22;20075;-69
2024/04/03 04:49:18;;;;;;;5.97;2.03;;;10.60;99.90;;;;;;6307808;22;19995;-69
2024/04/03 04:51:44;;;;;;;5.57;2.05;;;10.60;99.90;;;;;;6307863;22;20013;-69
2024/04/03 04:54:11;;;;;;;12.88;1.88;;;10.60;99.90;;;;;;6307421;22;20069;-70
2024/04/03 04:56:37;;;;;;;5.10;1.90;;;10.60;99.90;;;;;;6307717;22;20007;-69
2024/04/03 04:59:04;;;;;;;6.93;1.85;;;10.50;99.90;;;;;;6307350;22;20064;-69
2024/04/03 05:01:33;;;;;;;11.75;1.98;;;10.50;99.90;;;;;;6307486;22;20017;-69
2024/04/03 05:04:02;;;;;;;8.98;2.63;;;10.50;99.90;;;;;;6307542;22;19999;-69
2024/04/03 05:06:28;;;;;;;8.10;2.55;;;10.50;99.90;;;;;;6307583;22;20011;-70
2024/04/03 05:08:55;;;;;;;8.63;3.05;;;10.50;99.90;;;;;;6307327;22;20011;-69
2024/04/03 05:11:21;;;;;;;11.93;3.25;;;10.50;99.90;;;;;;6307414;22;20003;-69
2024/04/03 05:13:47;;;;;;;9.52;3.10;;;10.50;99.90;;;;;;6307718;22;20003;-69
2024/04/03 05:16:14;;;;;;;9.15;3.25;;;10.50;99.90;;;;;;6307496;22;20022;-70
2024/04/03 05:18:44;;;;;;;17.33;3.85;;;10.50;99.90;;;;;;6304069;22;19999;-69
2024/04/03 05:21:11;;;;;;;10.45;4.38;;;10.50;99.90;;;;;;6307213;22;20022;-69
2024/04/03 05:23:37;;;;;;;8.38;3.17;;;10.50;99.90;;;;;;6307577;22;19996;-69
2024/04/03 05:26:13;;;;;;;10.00;3.00;;;10.60;99.90;;;;;;6306824;22;20456;-69
2024/04/03 05:28:39;;;;;;;11.45;2.50;;;10.60;99.90;;;;;;6306896;22;20552;-69
2024/04/03 05:31:08;;;;;;;12.40;2.58;;;10.60;99.90;;;;;;6307343;22;20007;-68
2024/04/03 05:33:35;;;;;;;12.70;3.17;;;10.60;99.90;;;;;;6307257;22;20006;-70
2024/04/03 05:36:03;;;;;;;8.90;3.30;;;10.70;99.90;;;;;;6305512;22;20397;-69
2024/04/03 05:38:29;;;;;;;8.20;2.70;;;10.80;99.90;;;;;;6306214;22;20962;-68
2024/04/03 05:40:55;;;;;;;9.25;2.58;;;10.80;99.90;;;;;;6306690;22;20018;-69
2024/04/03 05:43:22;;;;;;;9.50;2.90;;;10.80;99.90;;;;;;6305982;22;19995;-69
2024/04/03 05:45:50;;;;;;;11.30;6.00;;;10.80;99.90;;;;;;6307086;22;20076;-69
2024/04/03 05:48:16;;;;;;;9.73;4.05;;;10.90;99.90;;;;;;6307146;22;20011;-70
2024/04/03 05:50:42;;;;;;;10.23;2.83;;;11.00;99.90;;;;;;6306317;22;20425;-71
2024/04/03 05:53:08;;;;;;;8.10;2.63;;;11.00;99.90;;;;;;6279318;22;20014;-70
2024/04/03 05:55:34;;;;;;;13.85;5.05;;;11.00;99.90;;;;;;6306416;22;20022;-70
2024/04/03 05:58:00;;;;;;;17.95;3.50;;;11.10;99.90;;;;;;6306818;22;20034;-71
2024/04/03 06:00:26;;;;;;;9.70;3.75;;;11.20;99.90;;;;;;6306289;22;20090;-72
2024/04/03 06:02:52;;;;;;;9.15;3.45;;;11.20;99.90;;;;;;6306398;22;20005;-71
2024/04/03 06:05:18;;;;;;;9.80;2.75;;;11.20;99.90;;;;;;6306699;22;20469;-70
2024/04/03 06:07:45;;;;;;;9.82;3.00;;;11.30;99.90;;;;;;6305966;22;19999;-69
2024/04/03 06:10:12;;;;;;;12.75;4.00;;;11.30;99.90;;;;;;6306395;22;20092;-72
2024/04/03 06:12:41;;;;;;;17.02;4.93;;;11.40;99.90;;;;;;6306915;22;20002;-70
2024/04/03 06:15:07;;;;;;;11.57;3.13;;;11.40;99.90;;;;;;6305959;22;20087;-70
2024/04/03 06:17:34;;;;;;;15.45;3.22;;;11.50;99.90;;;;;;6304521;22;20460;-67
2024/04/03 06:20:00;;;;;;;10.82;3.17;;;11.50;99.90;;;;;;6305795;22;20338;-67
2024/04/03 06:22:27;;;;;;;16.65;4.60;;;11.50;99.90;;;;;;6304746;22;20058;-68
2024/04/03 06:24:54;;;;;;;12.10;3.88;;;11.50;99.90;;;;;;6305368;22;20027;-70
2024/04/03 06:27:20;;;;;;;14.93;3.58;;;11.60;99.90;;;;;;6306285;22;20370;-72
2024/04/03 06:29:46;;;;;;;8.88;2.55;;;11.60;99.90;;;;;;6306508;22;20444;-69
2024/04/03 06:32:12;;;;;;;12.85;2.42;;;11.60;99.90;;;;;;6306393;22;19999;-72
2024/04/03 06:34:39;;;;;;;13.73;2.55;;;11.70;99.90;;;;;;6306190;22;20455;-74
2024/04/03 06:37:05;;;;;;;10.45;2.80;;;11.70;99.90;;;;;;6307342;22;20481;-73
2024/04/03 06:39:31;;;;;;;14.13;3.60;;;11.80;99.90;;;;;;6308541;22;19999;-70
2024/04/03 06:41:58;;;;;;;12.45;3.03;;;11.90;99.90;;;;;;6281628;22;20030;-79
2024/04/03 06:44:24;;;;;;;15.20;4.25;;;11.90;99.90;;;;;;6308634;22;20374;-73
2024/04/03 06:46:51;;;;;;;16.35;4.40;;;11.90;99.90;;;;;;6308028;22;20372;-70
2024/04/03 06:49:17;;;;;;;14.70;3.95;;;11.90;99.90;;;;;;6307965;22;20002;-70
2024/04/03 06:51:43;;;;;;;13.23;4.05;;;12.00;99.90;;;;;;6308543;22;20007;-70
2024/04/03 06:54:09;;;;;;;14.20;3.90;;;12.00;99.90;;;;;;6308464;22;19995;-71
2024/04/03 06:56:35;;;;;;;22.83;4.30;;;12.00;99.90;;;;;;6308064;22;20026;-70
2024/04/03 06:59:01;;;;;;;15.20;3.42;;;12.00;99.90;;;;;;6308151;22;19999;-74
2024/04/03 07:01:26;;;;;;;22.63;4.18;;;12.00;99.90;;;;;;6308295;22;20006;-74
2024/04/03 07:03:52;;;;;;;14.25;3.97;;;12.00;99.90;;;;;;6307829;22;20046;-74
2024/04/03 07:06:19;;;;;;;17.15;4.32;;;12.10;99.90;;;;;;6307919;22;19999;-74
2024/04/03 07:08:44;;;;;;;12.75;3.80;;;12.10;99.90;;;;;;6308445;22;20317;-74
2024/04/03 07:11:11;;;;;;;17.85;3.95;;;12.20;99.90;;;;;;6308680;22;20008;-73
2024/04/03 07:13:37;;;;;;;18.08;4.13;;;12.20;99.90;;;;;;6308417;22;20002;-74
2024/04/03 07:16:02;;;;;;;22.17;3.92;;;12.30;99.90;;;;;;6307199;22;20011;-74
2024/04/03 07:18:28;;;;;;;28.33;4.90;;;12.30;99.90;;;;;;6306394;22;20061;-73
2024/04/03 07:20:58;;;;;;;16.63;4.43;;;12.40;99.90;;;;;;6307777;22;20007;-73
2024/04/03 07:23:28;;;;;;;16.23;3.63;;;12.40;99.90;;;;;;6307157;22;20061;-74
2024/04/03 07:25:55;;;;;;;17.30;4.15;;;12.50;99.90;;;;;;6306211;22;20023;-75
2024/04/03 07:28:21;;;;;;;10.10;3.25;;;12.50;99.90;;;;;;6306322;22;20000;-74
2024/04/03 07:30:47;;;;;;;13.73;2.80;;;12.60;99.90;;;;;;6305882;22;20029;-74
2024/04/03 07:33:13;;;;;;;13.93;2.85;;;12.60;99.90;;;;;;6304466;22;19988;-75
2024/04/03 07:35:39;;;;;;;16.00;3.65;;;12.70;99.90;;;;;;6304585;22;20031;-75
2024/04/03 07:38:05;;;;;;;15.70;3.08;;;12.70;99.90;;;;;;6304561;22;19999;-75
2024/04/03 07:40:31;;;;;;;17.10;3.10;;;12.80;99.90;;;;;;6305045;22;20324;-75
2024/04/03 07:42:57;;;;;;;18.70;3.10;;;12.90;99.90;;;;;;6307320;22;20011;-74
2024/04/03 07:45:23;;;;;;;13.95;2.80;;;12.90;99.90;;;;;;6306632;22;19995;-81
2024/04/03 07:47:49;;;;;;;9.95;2.88;;;13.00;99.90;;;;;;6307578;22;20010;-73
2024/04/03 07:50:16;;;;;;;10.82;2.53;;;13.00;99.90;;;;;;6308921;22;20351;-73
2024/04/03 07:52:42;;;;;;;8.63;2.03;;;13.10;99.90;;;;;;6308967;22;20008;-73
2024/04/03 07:55:11;;;;;;;16.27;2.58;;;13.20;99.90;;;;;;6308311;22;20015;-73
2024/04/03 07:57:37;;;;;;;20.65;2.30;;;13.20;99.90;;;;;;6308580;22;20048;-75
2024/04/03 08:00:05;;;;;;;8.18;1.98;;;13.20;99.90;;;;;;6308581;22;20452;-75
2024/04/03 08:02:39;;;;;;;16.33;2.75;;;13.20;99.90;;;;;;6308306;22;20002;-75
2024/04/03 08:05:14;;;;;;;10.18;2.70;;;13.30;99.90;;;;;;6306861;22;19999;-75
2024/04/03 08:07:44;;;;;;;14.45;2.88;;;13.30;99.90;;;;;;6308298;22;20430;-74
2024/04/03 08:10:10;;;;;;;8.73;2.28;;;13.30;99.90;;;;;;6308210;22;20010;-76
2024/04/03 08:12:38;;;;;;;12.68;2.45;;;13.30;99.90;;;;;;6308147;22;20444;-73
2024/04/03 08:15:05;;;;;;;19.40;3.83;;;13.30;99.90;;;;;;6308278;22;20014;-75
2024/04/03 08:17:31;;;;;;;24.40;2.60;;;13.40;99.90;;;;;;6308734;22;20310;-75
2024/04/03 08:19:57;;;;;;;16.45;3.58;;;13.40;99.90;;;;;;6307918;22;19999;-74
2024/04/03 08:22:24;;;;;;;17.73;3.08;;;13.40;99.90;;;;;;6307992;22;20444;-75
2024/04/03 08:24:51;;;;;;;18.77;3.75;;;13.40;99.90;;;;;;6308679;22;20453;-74
2024/04/03 08:27:18;;;;;;;18.00;3.22;;;13.40;99.90;;;;;;6307884;22;20448;-75
2024/04/03 08:29:48;;;;;;;23.30;2.55;;;13.50;99.90;;;;;;6308397;22;20162;-74
2024/04/03 08:32:15;;;;;;;10.88;2.15;;;13.50;99.90;;;;;;6307864;22;20310;-74
2024/04/03 08:34:42;;;;;;;20.58;2.75;;;13.50;99.90;;;;;;6307673;22;20011;-75
2024/04/03 08:37:08;;;;;;;18.02;2.92;;;13.50;99.90;;;;;;6308276;22;20052;-74
2024/04/03 08:39:34;;;;;;;16.13;2.50;;;13.50;99.90;;;;;;6308119;22;20003;-74
2024/04/03 08:42:02;;;;;;;17.98;2.17;;;13.60;99.90;;;;;;6307878;22;20003;-74
2024/04/03 08:44:34;;;;;;;25.05;2.55;;;13.50;99.90;;;;;;6307495;22;20026;-74
2024/04/03 08:47:00;;;;;;;;;;;13.60;99.90;;;;;;6307949;22;20377;-74
2024/04/03 08:49:35;;;;;;;9.95;1.77;;;13.60;99.90;;;;;;6307164;22;20224;-74
2024/04/03 08:52:04;;;;;;;10.70;2.15;;;13.60;99.90;;;;;;6307524;22;20004;-75
2024/04/03 08:54:31;;;;;;;8.63;1.50;;;13.60;99.90;;;;;;6307729;22;20022;-76
2024/04/03 08:57:00;;;;;;;10.07;1.45;;;13.60;99.90;;;;;;6308580;22;20072;-76
2024/04/03 08:59:27;;;;;;;10.57;1.55;;;13.70;99.90;;;;;;6309016;22;20003;-76
2024/04/03 09:01:53;;;;;;;7.25;0.95;;;13.60;99.90;;;;;;6309201;22;20437;-76
2024/04/03 09:04:20;;;;;;;8.77;1.38;;;13.70;99.90;;;;;;6310446;22;20003;-77
2024/04/03 09:06:47;;;;;;;6.15;1.33;;;13.60;99.90;;;;;;6307367;22;20735;-73
2024/04/03 09:09:19;;;;;;;12.52;2.58;;;13.70;99.90;;;;;;6308764;22;20007;-74
2024/04/03 09:11:47;;;;;;;13.02;1.65;;;13.70;99.90;;;;;;6306634;22;20387;-71
2024/04/03 09:14:23;;;;;;;6.65;1.40;;;13.60;99.90;;;;;;6306955;22;20430;-71
2024/04/03 09:16:49;;;;;;;6.85;1.38;;;13.60;99.90;;;;;;6306717;22;20014;-69
2024/04/03 09:19:15;;;;;;;13.15;2.00;;;13.70;99.90;;;;;;6304966;22;20009;-76
2024/04/03 09:21:41;;;;;;;9.45;1.80;;;13.70;99.90;;;;;;6307000;22;20357;-73
2024/04/03 09:24:08;;;;;;;10.60;1.35;;;13.70;99.90;;;;;;6307118;22;19999;-74
2024/04/03 09:26:42;;;;;;;7.55;1.27;;;13.80;99.90;;;;;;6307242;22;20003;-75
2024/04/03 09:29:10;;;;;;;8.57;1.48;;;13.80;99.90;;;;;;6306813;22;20021;-76
2024/04/03 09:31:36;;;;;;;11.20;1.48;;;13.70;99.90;;;;;;6307116;22;20074;-75
2024/04/03 09:34:03;;;;;;;16.45;1.65;;;13.80;99.90;;;;;;6306452;22;20034;-74
2024/04/03 09:36:29;;;;;;;13.70;2.22;;;13.80;99.90;;;;;;6305929;22;20015;-75
2024/04/03 09:38:55;;;;;;;7.47;1.35;;;13.90;99.90;;;;;;6306772;22;20429;-75
2024/04/03 09:41:21;;;;;;;10.15;1.30;;;13.90;99.90;;;;;;6305826;22;20003;-75
2024/04/03 09:43:50;;;;;;;7.03;1.58;;;14.00;99.90;;;;;;6305857;22;20003;-75
2024/04/03 09:46:19;;;;;;;9.80;1.50;;;14.00;99.90;;;;;;6304795;22;20034;-75
2024/04/03 09:48:50;;;;;;;5.53;1.20;;;14.00;99.90;;;;;;6304875;22;19999;-75
2024/04/03 09:51:17;;;;;;;7.82;1.00;;;14.00;99.90;;;;;;6305055;22;20078;-74
2024/04/03 09:53:44;;;;;;;8.57;1.58;;;14.00;99.90;;;;;;6305175;22;20000;-74
2024/04/03 09:56:15;;;;;;;7.10;1.48;;;14.00;99.90;;;;;;6305546;22;20026;-72
2024/04/03 09:58:41;;;;;;;6.70;1.70;;;14.00;99.90;;;;;;6303822;22;20581;-71
2024/04/03 10:01:08;;;;;;;6.22;1.13;;;14.00;99.90;;;;;;6304303;22;20023;-73
2024/04/03 10:03:34;;;;;;;10.63;1.65;;;14.00;99.90;;;;;;6306384;22;20040;-73
2024/04/03 10:06:00;;;;;;;7.97;1.23;;;14.00;99.90;;;;;;6306762;22;20013;-73
2024/04/03 10:08:41;;;;;;;7.35;2.00;;;14.00;99.90;;;;;;6306889;22;20023;-73
2024/04/03 10:11:10;;;;;;;9.52;2.22;;;14.00;99.90;;;;;;6307045;22;20094;-74
2024/04/03 10:13:39;;;;;;;7.65;1.67;;;14.00;99.90;;;;;;6306561;22;20003;-73
2024/04/03 10:16:12;;;;;;;14.07;1.63;;;14.00;99.90;;;;;;6306632;22;20007;-73
2024/04/03 10:18:45;;;;;;;8.10;1.50;;;14.00;99.90;;;;;;6306430;22;20079;-74
2024/04/03 10:21:12;;;;;;;7.82;1.45;;;14.10;99.90;;;;;;6306042;22;20007;-73
2024/04/03 10:23:46;;;;;;;11.73;2.00;;;14.00;99.90;;;;;;6306599;22;19995;-73
2024/04/03 10:26:13;;;;;;;10.10;1.80;;;14.00;99.90;;;;;;6306763;22;20007;-73
2024/04/03 10:28:40;;;;;;;8.45;1.48;;;14.00;99.90;;;;;;6306496;22;19996;-72
2024/04/03 10:31:06;;;;;;;7.35;1.58;;;14.00;99.90;;;;;;6306368;22;20322;-72
2024/04/03 10:33:32;;;;;;;6.35;1.42;;;14.00;99.90;;;;;;6306484;22;20003;-72
2024/04/03 10:35:59;;;;;;;8.02;1.50;;;13.90;99.90;;;;;;6306593;22;20011;-72
2024/04/03 10:38:25;;;;;;;12.18;2.33;;;13.90;99.90;;;;;;6306816;22;19995;-73
2024/04/03 10:40:51;;;;;;;10.63;2.05;;;13.90;99.90;;;;;;6306987;22;20007;-73
2024/04/03 10:43:17;;;;;;;8.70;2.08;;;13.90;99.90;;;;;;6307122;22;20007;-72
2024/04/03 10:45:52;;;;;;;8.68;1.80;;;13.90;99.90;;;;;;6306991;22;20007;-72
2024/04/03 10:48:22;;;;;;;10.55;2.42;;;13.90;99.90;;;;;;6306599;22;20010;-73
2024/04/03 10:50:48;;;;;;;14.80;2.53;;;14.00;99.90;;;;;;6306767;22;20007;-74
2024/04/03 10:53:14;;;;;;;9.43;2.40;;;14.00;99.90;;;;;;6306418;22;19999;-74
2024/04/03 10:55:41;;;;;;;12.48;2.28;;;14.00;99.90;;;;;;6304972;22;20327;-73
2024/04/03 10:58:08;;;;;;;15.13;3.25;;;14.00;99.90;;;;;;6305198;22;19996;-74
2024/04/03 11:00:43;;;;;;;12.68;3.08;;;14.10;99.90;;;;;;6304103;22;20003;-74
2024/04/03 11:03:10;;;;;;;13.38;2.45;;;14.10;99.90;;;;;;6305075;22;20027;-75
2024/04/03 11:05:37;;;;;;;11.85;3.22;;;14.10;99.90;;;;;;6306514;22;20000;-74
2024/04/03 11:08:05;;;;;;;17.98;3.28;;;14.10;99.90;;;;;;6306792;22;19995;-73
2024/04/03 11:10:32;;;;;;;16.60;3.92;;;14.10;99.90;;;;;;6280263;22;20414;-74
2024/04/03 11:13:06;;;;;;;11.50;3.38;;;14.10;99.90;;;;;;6307122;22;20088;-74
2024/04/03 11:15:32;;;;;;;10.85;3.67;;;14.10;99.90;;;;;;6306165;22;20433;-74
2024/04/03 11:18:01;;;;;;;15.45;4.28;;;14.20;99.90;;;;;;6306470;22;19996;-74
2024/04/03 11:20:28;;;;;;;12.43;5.07;;;14.10;99.90;;;;;;6306236;22;20486;-74
2024/04/03 11:22:58;;;;;;;12.75;6.22;;;14.20;99.90;;;;;;6306327;22;20014;-74
2024/04/03 11:25:25;;;;;;;13.68;4.78;;;14.10;99.90;;;;;;6308100;22;20003;-74
2024/04/03 11:27:53;;;;;;;10.60;4.20;;;14.20;99.90;;;;;;6307156;22;20439;-74
2024/04/03 11:30:19;;;;;;;14.20;6.38;;;14.20;99.90;;;;;;6307895;22;19999;-74
2024/04/03 11:32:45;;;;;;;11.43;4.80;;;14.20;99.90;;;;;;6308078;22;20004;-74
2024/04/03 11:35:11;;;;;;;13.70;4.82;;;14.20;99.90;;;;;;6307328;22;20004;-75
2024/04/03 11:37:37;;;;;;;9.77;3.65;;;14.30;99.90;;;;;;6306812;22;20048;-75
2024/04/03 11:40:06;;;;;;;28.20;12.30;;;14.30;99.90;;;;;;6306918;22;20316;-75
2024/04/03 11:42:33;;;;;;;20.95;8.82;;;14.30;99.90;;;;;;6307717;22;20010;-75
2024/04/03 11:45:00;;;;;;;15.20;6.40;;;14.40;99.90;;;;;;6307658;22;20031;-74
2024/04/03 11:47:26;;;;;;;13.98;3.53;;;14.40;99.90;;;;;;6308030;22;20079;-74
2024/04/03 11:49:52;;;;;;;8.77;3.80;;;14.40;99.90;;;;;;6308351;22;20014;-75
2024/04/03 11:52:19;;;;;;;16.15;3.42;;;14.50;99.90;;;;;;6307477;22;20389;-75
2024/04/03 11:54:45;;;;;;;683.22;375.08;;;14.50;99.90;;;;;;6307753;22;20015;-74
2024/04/03 11:57:10;;;;;;;44.47;25.65;;;14.50;99.90;;;;;;6307962;22;20011;-75
2024/04/03 11:59:37;;;;;;;8.52;3.15;;;14.50;99.90;;;;;;6307039;22;20003;-75
2024/04/03 12:02:04;;;;;;;12.30;2.72;;;14.50;99.90;;;;;;6307345;22;20010;-74
2024/04/03 12:04:30;;;;;;;9.40;3.97;;;14.60;99.90;;;;;;6308051;22;20032;-74
2024/04/03 12:06:56;;;;;;;11.00;3.38;;;14.50;99.90;;;;;;6308033;22;20034;-74
2024/04/03 12:09:22;;;;;;;18.95;7.93;;;14.50;99.90;;;;;;6307987;22;19995;-75
2024/04/03 12:11:48;;;;;;;24.95;10.50;;;14.60;99.90;;;;;;6308299;22;20007;-74
2024/04/03 12:14:14;;;;;;;19.30;7.22;;;14.50;99.90;;;;;;6307934;22;19995;-76
2024/04/03 12:16:39;;;;;;;8.00;2.17;;;14.50;99.90;;;;;;6307906;22;20053;-74
2024/04/03 12:19:26;;;;;;;82.38;39.33;;;14.50;99.90;;;;;;6307953;22;19999;-72
2024/04/03 12:21:55;;;;;;;19.85;7.72;;;14.50;99.90;;;;;;6307773;22;20006;-76
2024/04/03 12:24:22;;;;;;;5.13;2.33;;;14.60;99.90;;;;;;6307802;22;20026;-77
2024/04/03 12:26:48;;;;;;;37.20;17.73;;;14.60;99.90;;;;;;6307916;22;20007;-76
2024/04/03 12:29:16;;;;;;;12.32;4.05;;;14.60;99.90;;;;;;6307479;22;20410;-77
2024/04/03 12:31:42;;;;;;;42.63;16.60;;;14.60;99.90;;;;;;6307749;22;20004;-76
2024/04/03 12:34:12;;;;;;;12.43;4.63;;;14.70;99.90;;;;;;6307568;22;20007;-77
2024/04/03 12:36:38;;;;;;;22.95;9.93;;;14.70;99.90;;;;;;6307449;22;20011;-78
2024/04/03 12:39:04;;;;;;;9.43;2.15;;;14.70;99.90;;;;;;6307786;22;20074;-77
2024/04/03 12:41:30;;;;;;;25.20;15.15;;;14.80;99.90;;;;;;6307572;22;20003;-77